createdAt,value
2024-02-19T00:01:36.652Z,8.00
2024-02-19T00:04:05.897Z,8.00
2024-02-19T00:06:32.555Z,8.00
2024-02-19T00:08:59.581Z,8.00
2024-02-19T00:11:26.201Z,8.00
2024-02-19T00:13:52.847Z,7.90
2024-02-19T00:16:20.818Z,7.90
2024-02-19T00:18:47.455Z,7.90
2024-02-19T00:21:17.145Z,7.90
2024-02-19T00:23:43.681Z,7.90
2024-02-19T00:26:10.624Z,7.90
2024-02-19T00:28:37.556Z,7.90
2024-02-19T00:31:04.269Z,7.90
2024-02-19T00:33:32.614Z,7.90
2024-02-19T00:35:59.707Z,7.90
2024-02-19T00:38:26.678Z,7.90
2024-02-19T00:40:53.616Z,7.90
2024-02-19T00:43:20.620Z,7.90
2024-02-19T00:45:47.699Z,7.90
2024-02-19T00:48:14.700Z,7.90
2024-02-19T00:50:43.421Z,7.90
2024-02-19T00:53:09.990Z,7.80
2024-02-19T00:55:36.920Z,7.80
2024-02-19T00:58:03.587Z,7.80
2024-02-19T01:00:30.116Z,7.80
2024-02-19T01:02:57.085Z,7.80
2024-02-19T01:05:24.123Z,7.80
2024-02-19T01:07:50.636Z,7.80
2024-02-19T01:10:17.640Z,7.80
2024-02-19T01:12:44.231Z,7.80
2024-02-19T01:15:11.029Z,7.80
2024-02-19T01:17:38.201Z,7.70
2024-02-19T01:20:07.400Z,7.70
2024-02-19T01:22:34.818Z,7.70
2024-02-19T01:25:02.581Z,7.70
2024-02-19T01:27:29.751Z,7.70
2024-02-19T01:29:56.257Z,7.70
2024-02-19T01:32:23.645Z,7.70
2024-02-19T01:34:50.713Z,7.70
2024-02-19T01:37:17.717Z,7.70
2024-02-19T01:39:44.332Z,7.70
2024-02-19T01:42:11.755Z,7.70
2024-02-19T01:44:38.320Z,7.70
2024-02-19T01:47:04.946Z,7.70
2024-02-19T01:49:32.371Z,7.70
2024-02-19T01:52:01.244Z,7.70
2024-02-19T01:54:27.918Z,7.70
2024-02-19T01:56:54.650Z,7.70
2024-02-19T01:59:23.037Z,7.60
2024-02-19T02:01:49.972Z,7.60
2024-02-19T02:04:17.960Z,7.60
2024-02-19T02:06:45.093Z,7.60
2024-02-19T02:09:12.060Z,7.60
2024-02-19T02:11:38.601Z,7.70
2024-02-19T02:14:05.564Z,7.70
2024-02-19T02:16:32.050Z,7.70
2024-02-19T02:18:58.722Z,7.70
2024-02-19T02:21:25.956Z,7.70
2024-02-19T02:23:52.492Z,7.70
2024-02-19T02:26:19.561Z,7.70
2024-02-19T02:28:46.330Z,7.70
2024-02-19T02:31:13.545Z,7.70
2024-02-19T02:33:40.734Z,7.70
2024-02-19T02:36:10.922Z,7.70
2024-02-19T02:38:37.432Z,7.60
2024-02-19T02:41:04.415Z,7.60
2024-02-19T02:43:30.949Z,8.70
2024-02-19T02:45:57.556Z,7.60
2024-02-19T02:48:25.161Z,7.60
2024-02-19T02:50:51.780Z,7.60
2024-02-19T02:53:19.228Z,7.60
2024-02-19T02:55:45.752Z,7.50
2024-02-19T02:58:12.893Z,7.50
2024-02-19T03:00:40.216Z,7.50
2024-02-19T03:03:07.273Z,7.50
2024-02-19T03:05:33.962Z,7.40
2024-02-19T03:08:01.045Z,7.30
2024-02-19T03:10:27.749Z,7.20
2024-02-19T03:12:54.325Z,7.10
2024-02-19T03:15:21.275Z,7.00
2024-02-19T03:17:48.320Z,7.00
2024-02-19T03:20:16.095Z,6.90
2024-02-19T03:22:42.823Z,6.90
2024-02-19T03:25:09.415Z,6.80
2024-02-19T03:27:37.572Z,6.80
2024-02-19T03:30:04.311Z,6.80
2024-02-19T03:32:31.248Z,6.80
2024-02-19T03:34:58.972Z,6.80
2024-02-19T03:37:26.304Z,6.70
2024-02-19T03:39:53.275Z,6.70
2024-02-19T03:42:20.459Z,6.50
2024-02-19T03:44:47.544Z,6.60
2024-02-19T03:47:14.460Z,6.60
2024-02-19T03:49:40.992Z,6.60
2024-02-19T03:52:08.012Z,6.60
2024-02-19T03:54:34.555Z,6.50
2024-02-19T03:57:01.529Z,6.50
2024-02-19T03:59:28.049Z,6.50
2024-02-19T04:01:55.114Z,6.50
2024-02-19T04:04:22.481Z,6.50
2024-02-19T04:06:49.952Z,6.50
2024-02-19T04:09:16.972Z,6.50
2024-02-19T04:11:43.658Z,6.50
2024-02-19T04:14:10.611Z,6.50
2024-02-19T04:16:37.342Z,6.50
2024-02-19T04:19:04.449Z,6.50
2024-02-19T04:21:31.163Z,6.50
2024-02-19T04:23:58.292Z,6.50
2024-02-19T04:26:24.908Z,6.50
2024-02-19T04:28:55.013Z,6.50
2024-02-19T04:31:21.987Z,6.50
2024-02-19T04:33:48.645Z,6.40
2024-02-19T04:36:15.746Z,6.40
2024-02-19T04:38:42.259Z,6.40
2024-02-19T04:41:09.692Z,6.40
2024-02-19T04:43:36.200Z,6.40
2024-02-19T04:46:04.150Z,6.40
2024-02-19T04:48:30.671Z,6.40
2024-02-19T04:50:57.201Z,6.40
2024-02-19T04:53:27.811Z,6.40
2024-02-19T04:55:54.327Z,6.40
2024-02-19T04:58:21.309Z,6.30
2024-02-19T05:00:48.564Z,6.40
2024-02-19T05:03:17.920Z,6.40
2024-02-19T05:05:45.327Z,6.30
2024-02-19T05:08:11.934Z,6.30
2024-02-19T05:10:39.087Z,6.30
2024-02-19T05:13:05.641Z,6.40
2024-02-19T05:15:32.573Z,6.30
2024-02-19T05:17:59.219Z,6.30
2024-02-19T05:20:26.540Z,6.30
2024-02-19T05:22:53.043Z,6.30
2024-02-19T05:25:20.229Z,6.20
2024-02-19T05:27:46.899Z,6.20
2024-02-19T05:30:13.597Z,6.20
2024-02-19T05:32:40.608Z,6.20
2024-02-19T05:35:08.544Z,6.10
2024-02-19T05:37:35.666Z,6.10
2024-02-19T05:40:02.326Z,6.10
2024-02-19T05:42:29.327Z,6.10
2024-02-19T05:44:55.826Z,6.10
2024-02-19T05:47:22.911Z,6.10
2024-02-19T05:49:49.558Z,6.10
2024-02-19T05:52:16.155Z,6.10
2024-02-19T05:54:44.487Z,6.00
2024-02-19T05:57:12.073Z,6.00
2024-02-19T05:59:39.039Z,6.10
2024-02-19T06:02:05.820Z,6.00
2024-02-19T06:04:33.098Z,6.00
2024-02-19T06:07:01.974Z,5.90
2024-02-19T06:09:29.169Z,5.90
2024-02-19T06:11:55.668Z,5.90
2024-02-19T06:14:22.188Z,5.90
2024-02-19T06:16:49.484Z,5.90
2024-02-19T06:19:18.184Z,5.80
2024-02-19T06:21:45.345Z,5.90
2024-02-19T06:24:11.865Z,5.90
2024-02-19T06:26:38.360Z,5.90
2024-02-19T06:29:05.529Z,5.90
2024-02-19T06:31:32.040Z,5.90
2024-02-19T06:33:58.692Z,5.90
2024-02-19T06:36:25.746Z,5.90
2024-02-19T06:38:52.298Z,5.90
2024-02-19T06:41:19.097Z,5.90
2024-02-19T06:43:46.064Z,5.90
2024-02-19T06:46:15.417Z,5.90
2024-02-19T06:48:43.005Z,5.90
2024-02-19T06:51:09.669Z,5.90
2024-02-19T06:53:36.747Z,5.90
2024-02-19T06:56:03.781Z,5.90
2024-02-19T06:58:31.208Z,5.90
2024-02-19T07:00:57.853Z,5.90
2024-02-19T07:03:25.724Z,5.90
2024-02-19T07:05:52.394Z,6.00
2024-02-19T07:08:18.971Z,6.00
2024-02-19T07:10:46.095Z,6.00
2024-02-19T07:13:12.803Z,6.00
2024-02-19T07:15:39.463Z,6.10
2024-02-19T07:18:06.122Z,6.10
2024-02-19T07:20:32.799Z,6.10
2024-02-19T07:23:01.277Z,6.20
2024-02-19T07:25:27.832Z,6.20
2024-02-19T07:27:54.457Z,6.10
2024-02-19T07:30:21.020Z,6.20
2024-02-19T07:32:47.683Z,6.20
2024-02-19T07:35:14.669Z,6.20
2024-02-19T07:37:42.233Z,6.30
2024-02-19T07:40:09.125Z,6.30
2024-02-19T07:42:38.670Z,6.30
2024-02-19T07:45:08.624Z,6.30
2024-02-19T07:47:36.374Z,6.30
2024-02-19T07:50:03.111Z,6.30
2024-02-19T07:52:29.739Z,6.40
2024-02-19T07:54:56.567Z,6.40
2024-02-19T07:57:23.080Z,6.40
2024-02-19T07:59:50.056Z,6.40
2024-02-19T08:02:16.810Z,6.40
2024-02-19T08:04:43.603Z,6.50
2024-02-19T08:07:10.340Z,6.50
2024-02-19T08:09:36.955Z,7.10
2024-02-19T08:12:04.201Z,6.70
2024-02-19T08:14:31.299Z,6.70
2024-02-19T08:16:57.888Z,6.70
2024-02-19T08:19:24.651Z,6.70
2024-02-19T08:21:52.255Z,6.70
2024-02-19T08:24:19.815Z,6.80
2024-02-19T08:26:47.771Z,6.90
2024-02-19T08:29:14.360Z,6.90
2024-02-19T08:31:41.473Z,7.00
2024-02-19T08:34:08.804Z,7.00
2024-02-19T08:36:36.064Z,6.90
2024-02-19T08:39:02.648Z,7.00
2024-02-19T08:41:30.881Z,7.10
2024-02-19T08:43:57.442Z,7.20
2024-02-19T08:46:24.153Z,7.20
2024-02-19T08:48:55.512Z,7.20
2024-02-19T08:51:24.932Z,7.20
2024-02-19T08:53:56.816Z,7.30
2024-02-19T08:56:26.410Z,7.40
2024-02-19T08:58:53.010Z,7.40
2024-02-19T09:01:20.467Z,7.40
2024-02-19T09:03:48.277Z,7.40
2024-02-19T09:06:15.420Z,7.40
2024-02-19T09:08:42.796Z,7.50
2024-02-19T09:11:09.858Z,7.50
2024-02-19T09:13:37.154Z,7.50
2024-02-19T09:16:04.282Z,7.60
2024-02-19T09:18:31.451Z,7.60
2024-02-19T09:20:57.956Z,7.70
2024-02-19T09:23:25.759Z,7.70
2024-02-19T09:25:55.174Z,7.80
2024-02-19T09:28:21.729Z,7.90
2024-02-19T09:30:48.718Z,8.00
2024-02-19T09:33:15.801Z,8.10
2024-02-19T09:35:42.460Z,8.10
2024-02-19T09:38:10.875Z,8.00
2024-02-19T09:40:37.973Z,8.10
2024-02-19T09:43:06.888Z,8.00
2024-02-19T09:48:22.949Z,8.20
2024-02-19T09:50:50.035Z,8.20
2024-02-19T09:53:19.077Z,8.30
2024-02-19T09:55:45.807Z,8.20
2024-02-19T09:58:12.342Z,8.20
2024-02-19T10:00:39.436Z,8.00
2024-02-19T10:03:08.464Z,8.20
2024-02-19T10:05:35.718Z,8.20
2024-02-19T10:08:05.869Z,8.30
2024-02-19T10:10:34.031Z,8.30
2024-02-19T10:13:01.583Z,8.30
2024-02-19T10:15:28.120Z,8.40
2024-02-19T10:17:54.717Z,8.50
2024-02-19T10:20:21.349Z,8.50
2024-02-19T10:22:48.302Z,8.60
2024-02-19T10:25:17.982Z,8.70
2024-02-19T10:27:46.038Z,8.70
2024-02-19T10:30:14.801Z,8.70
2024-02-19T10:32:42.442Z,8.70
2024-02-19T10:35:09.565Z,8.80
2024-02-19T10:37:37.178Z,8.70
2024-02-19T10:40:08.053Z,8.70
2024-02-19T10:42:34.573Z,8.70
2024-02-19T10:45:01.609Z,8.60
2024-02-19T10:47:28.160Z,8.60
2024-02-19T10:50:00.088Z,8.60
2024-02-19T10:52:27.432Z,8.70
2024-02-19T10:55:06.055Z,8.80
2024-02-19T10:57:53.256Z,8.90
2024-02-19T11:00:26.644Z,9.00
2024-02-19T11:03:06.189Z,9.00
2024-02-19T11:05:37.065Z,9.00
2024-02-19T11:08:04.117Z,9.00
2024-02-19T11:10:39.354Z,9.00
2024-02-19T11:13:09.289Z,9.00
2024-02-19T11:15:44.987Z,9.10
2024-02-19T11:18:16.964Z,9.10
2024-02-19T11:20:43.946Z,9.10
2024-02-19T11:23:11.185Z,9.10
2024-02-19T11:25:38.981Z,9.20
2024-02-19T11:28:06.675Z,9.10
2024-02-19T11:30:33.174Z,9.20
2024-02-19T11:33:00.821Z,9.20
2024-02-19T11:35:27.653Z,9.30
2024-02-19T11:37:54.263Z,9.30
2024-02-19T11:40:21.118Z,9.30
2024-02-19T11:42:49.399Z,9.30
2024-02-19T11:45:16.314Z,9.30
2024-02-19T11:47:44.372Z,9.30
2024-02-19T11:50:16.322Z,9.20
2024-02-19T11:52:46.517Z,9.20
2024-02-19T11:55:17.929Z,9.10
2024-02-19T11:57:45.432Z,9.00
2024-02-19T12:00:14.234Z,9.00
2024-02-19T12:02:50.836Z,9.00
2024-02-19T12:05:17.823Z,9.00
2024-02-19T12:07:44.695Z,9.10
2024-02-19T12:10:12.528Z,9.10
2024-02-19T12:12:39.815Z,9.20
2024-02-19T12:15:10.902Z,9.30
2024-02-19T12:17:37.702Z,9.40
2024-02-19T12:20:05.394Z,9.50
2024-02-19T12:22:32.010Z,9.60
2024-02-19T12:24:59.519Z,9.60
2024-02-19T12:27:26.555Z,9.70
2024-02-19T12:29:53.839Z,9.80
2024-02-19T12:32:23.735Z,9.70
2024-02-19T12:34:51.028Z,9.80
2024-02-19T12:37:18.416Z,9.80
2024-02-19T12:39:45.559Z,9.80
2024-02-19T12:42:12.845Z,9.70
2024-02-19T12:44:39.437Z,9.70
2024-02-19T12:47:06.069Z,9.60
2024-02-19T12:52:03.087Z,9.60
2024-02-19T12:54:30.344Z,9.70
2024-02-19T12:56:57.465Z,9.90
2024-02-19T12:59:26.041Z,10.10
2024-02-19T13:01:52.667Z,10.20
2024-02-19T13:04:19.620Z,10.20
2024-02-19T13:06:46.365Z,10.20
2024-02-19T13:09:13.603Z,10.30
2024-02-19T13:11:40.623Z,10.10
2024-02-19T13:14:07.885Z,10.00
2024-02-19T13:16:36.787Z,9.90
2024-02-19T13:19:03.539Z,9.90
2024-02-19T13:21:30.460Z,9.80
2024-02-19T13:23:57.600Z,9.70
2024-02-19T13:26:24.149Z,9.80
2024-02-19T13:28:50.715Z,9.90
2024-02-19T13:31:17.769Z,10.00
2024-02-19T13:33:44.400Z,10.00
2024-02-19T13:36:11.399Z,10.00
2024-02-19T13:38:39.188Z,10.00
2024-02-19T13:41:06.206Z,10.00
2024-02-19T13:43:33.427Z,10.00
2024-02-19T13:46:02.896Z,10.00
2024-02-19T13:48:30.196Z,10.10
2024-02-19T13:50:58.871Z,10.10
2024-02-19T13:53:27.361Z,10.20
2024-02-19T13:55:54.979Z,10.10
2024-02-19T13:58:23.353Z,10.00
2024-02-19T14:00:52.465Z,10.00
2024-02-19T14:03:21.514Z,9.90
2024-02-19T14:05:48.880Z,9.80
2024-02-19T14:08:16.336Z,9.70
2024-02-19T14:10:43.558Z,9.70
2024-02-19T14:13:10.621Z,9.70
2024-02-19T14:15:37.640Z,9.70
2024-02-19T14:18:04.237Z,9.70
2024-02-19T14:20:31.475Z,10.80
2024-02-19T14:22:58.178Z,9.70
2024-02-19T14:25:27.336Z,9.80
2024-02-19T14:27:55.544Z,9.80
2024-02-19T14:30:22.216Z,9.90
2024-02-19T14:32:48.834Z,9.90
2024-02-19T14:35:15.751Z,10.00
2024-02-19T14:37:42.893Z,10.00
2024-02-19T14:40:10.682Z,10.00
2024-02-19T14:42:37.587Z,10.00
2024-02-19T14:45:07.027Z,10.10
2024-02-19T14:47:38.736Z,10.10
2024-02-19T14:50:05.891Z,10.10
2024-02-19T14:52:34.477Z,10.10
2024-02-19T14:55:08.252Z,9.70
2024-02-19T14:57:36.665Z,10.10
2024-02-19T15:00:09.433Z,10.10
2024-02-19T15:02:37.438Z,10.00
2024-02-19T15:05:04.768Z,10.00
2024-02-19T15:07:32.127Z,10.00
2024-02-19T15:09:59.554Z,9.90
2024-02-19T15:12:26.349Z,9.80
2024-02-19T15:14:53.559Z,9.70
2024-02-19T15:17:20.228Z,9.70
2024-02-19T15:19:47.416Z,9.70
2024-02-19T15:22:17.572Z,9.60
2024-02-19T15:24:44.858Z,9.60
2024-02-19T15:27:11.918Z,9.60
2024-02-19T15:29:39.704Z,9.60
2024-02-19T15:32:08.539Z,9.60
2024-02-19T15:34:35.115Z,9.60
2024-02-19T15:37:02.236Z,9.60
2024-02-19T15:39:30.807Z,9.60
2024-02-19T15:41:57.370Z,9.60
2024-02-19T15:44:24.953Z,9.70
2024-02-19T15:46:53.095Z,9.70
2024-02-19T15:49:19.786Z,9.70
2024-02-19T15:51:46.857Z,9.70
2024-02-19T15:54:13.388Z,9.70
2024-02-19T15:56:40.871Z,9.70
2024-02-19T15:59:07.404Z,9.70
2024-02-19T16:01:34.684Z,9.70
2024-02-19T16:04:01.496Z,9.50
2024-02-19T16:06:30.024Z,9.70
2024-02-19T16:08:57.431Z,9.70
2024-02-19T16:11:24.074Z,9.70
2024-02-19T16:13:52.120Z,9.60
2024-02-19T16:16:19.914Z,9.60
2024-02-19T16:18:47.209Z,9.60
2024-02-19T16:21:14.309Z,9.60
2024-02-19T16:23:43.019Z,9.60
2024-02-19T16:26:10.951Z,9.60
2024-02-19T16:28:42.185Z,9.60
2024-02-19T16:31:10.425Z,9.60
2024-02-19T16:33:37.779Z,9.50
2024-02-19T16:36:07.513Z,9.50
2024-02-19T16:38:38.452Z,9.50
2024-02-19T16:43:54.284Z,9.50
2024-02-19T16:46:25.020Z,9.50
2024-02-19T16:48:52.702Z,9.50
2024-02-19T16:51:19.350Z,9.50
2024-02-19T16:53:54.177Z,9.40
2024-02-19T16:56:22.935Z,9.40
2024-02-19T16:58:49.963Z,9.40
2024-02-19T17:01:19.291Z,9.30
2024-02-19T17:03:46.750Z,9.30
2024-02-19T17:06:14.677Z,9.30
2024-02-19T17:08:41.972Z,9.80
2024-02-19T17:11:09.220Z,9.20
2024-02-19T17:13:37.945Z,9.20
2024-02-19T17:16:05.143Z,9.10
2024-02-19T17:18:32.481Z,9.10
2024-02-19T17:21:00.211Z,9.10
2024-02-19T17:23:26.788Z,9.00
2024-02-19T17:25:53.358Z,9.00
2024-02-19T17:28:20.937Z,9.00
2024-02-19T17:30:47.812Z,8.90
2024-02-19T17:33:14.497Z,8.90
2024-02-19T17:35:43.612Z,8.90
2024-02-19T17:38:12.938Z,8.90
2024-02-19T17:40:40.882Z,8.90
2024-02-19T17:43:08.920Z,8.90
2024-02-19T17:45:35.535Z,8.90
2024-02-19T17:48:02.547Z,8.80
2024-02-19T17:50:29.149Z,8.80
2024-02-19T17:52:56.077Z,8.80
2024-02-19T17:55:22.773Z,8.80
2024-02-19T17:57:49.810Z,8.80
2024-02-19T18:00:16.592Z,8.80
2024-02-19T18:02:43.648Z,8.80
2024-02-19T18:05:10.312Z,8.90
2024-02-19T18:07:37.351Z,8.90
2024-02-19T18:10:04.909Z,8.90
2024-02-19T18:12:32.611Z,9.00
2024-02-19T18:15:00.506Z,9.70
2024-02-19T18:17:27.767Z,9.00
2024-02-19T18:19:55.914Z,9.00
2024-02-19T18:22:23.111Z,9.00
2024-02-19T18:24:51.617Z,9.10
2024-02-19T18:27:18.844Z,9.10
2024-02-19T18:29:45.899Z,9.10
2024-02-19T18:32:14.903Z,9.10
2024-02-19T18:34:45.778Z,9.10
2024-02-19T18:37:12.556Z,9.10
2024-02-19T18:39:39.745Z,9.10
2024-02-19T18:42:09.270Z,9.10
2024-02-19T18:44:36.235Z,9.00
2024-02-19T18:47:06.455Z,9.00
2024-02-19T18:49:34.055Z,9.00
2024-02-19T18:52:02.227Z,9.10
2024-02-19T18:54:31.982Z,9.10
2024-02-19T18:57:02.504Z,9.10
2024-02-19T18:59:32.515Z,9.10
2024-02-19T19:02:02.353Z,9.10
2024-02-19T19:04:29.566Z,9.10
2024-02-19T19:06:56.386Z,9.10
2024-02-19T19:09:23.572Z,9.10
2024-02-19T19:11:50.545Z,9.10
2024-02-19T19:14:17.477Z,9.10
2024-02-19T19:16:44.560Z,9.10
2024-02-19T19:19:11.653Z,9.10
2024-02-19T19:21:38.875Z,9.10
2024-02-19T19:24:09.408Z,9.10
2024-02-19T19:26:37.457Z,9.10
2024-02-19T19:29:04.847Z,9.00
2024-02-19T19:31:32.986Z,9.10
2024-02-19T19:34:00.651Z,9.10
2024-02-19T19:36:27.846Z,9.10
2024-02-19T19:38:54.381Z,9.10
2024-02-19T19:41:21.665Z,9.10
2024-02-19T19:43:50.522Z,9.10
2024-02-19T19:46:17.646Z,9.10
2024-02-19T19:48:44.664Z,9.10
2024-02-19T19:51:11.234Z,9.10
2024-02-19T19:53:38.074Z,9.10
2024-02-19T19:56:05.254Z,9.10
2024-02-19T19:58:33.306Z,9.20
2024-02-19T20:01:01.360Z,9.10
2024-02-19T20:03:27.939Z,9.10
2024-02-19T20:05:55.099Z,9.20
2024-02-19T20:08:21.813Z,9.10
2024-02-19T20:10:48.700Z,9.10
2024-02-19T20:13:15.954Z,9.10
2024-02-19T20:15:43.095Z,9.10
2024-02-19T20:18:10.293Z,9.10
2024-02-19T20:20:37.085Z,9.10
2024-02-19T20:23:04.227Z,9.10
2024-02-19T20:25:32.039Z,9.10
2024-02-19T20:28:00.640Z,9.10
2024-02-19T20:30:27.688Z,9.10
2024-02-19T20:32:54.332Z,9.10
2024-02-19T20:35:21.381Z,9.00
2024-02-19T20:37:47.954Z,8.50
2024-02-19T20:40:14.595Z,9.00
2024-02-19T20:42:41.286Z,9.00
2024-02-19T20:45:09.669Z,9.00
2024-02-19T20:47:40.494Z,9.00
2024-02-19T20:50:10.300Z,9.00
2024-02-19T20:52:37.035Z,9.00
2024-02-19T20:55:06.409Z,9.00
2024-02-19T20:57:35.154Z,9.00
2024-02-19T21:00:07.512Z,9.00
2024-02-19T21:02:34.550Z,9.00
2024-02-19T21:05:01.807Z,8.90
2024-02-19T21:07:28.694Z,8.90
2024-02-19T21:09:58.801Z,8.90
2024-02-19T21:12:25.558Z,8.80
2024-02-19T21:14:52.490Z,8.80
2024-02-19T21:17:19.161Z,8.80
2024-02-19T21:19:46.233Z,8.80
2024-02-19T21:22:13.385Z,8.80
2024-02-19T21:24:40.232Z,8.80
2024-02-19T21:27:07.705Z,8.70
2024-02-19T21:29:34.201Z,8.70
2024-02-19T21:32:01.161Z,8.70
2024-02-19T21:34:27.943Z,8.70
2024-02-19T21:36:57.529Z,8.60
2024-02-19T21:39:24.916Z,8.60
2024-02-19T21:41:52.164Z,8.60
2024-02-19T21:44:19.311Z,8.60
2024-02-19T21:46:47.129Z,8.60
2024-02-19T21:49:18.541Z,8.60
2024-02-19T21:51:45.623Z,8.60
2024-02-19T21:54:12.366Z,8.60
2024-02-19T21:56:39.401Z,8.60
2024-02-19T21:59:05.917Z,8.60
2024-02-19T22:01:32.719Z,8.60
2024-02-19T22:04:02.894Z,8.60
2024-02-19T22:06:29.711Z,8.60
2024-02-19T22:08:59.583Z,8.60
2024-02-19T22:11:26.634Z,8.60
2024-02-19T22:13:53.154Z,8.60
2024-02-19T22:16:20.135Z,8.60
2024-02-19T22:18:47.228Z,8.60
2024-02-19T22:21:15.368Z,8.60
2024-02-19T22:23:41.868Z,8.60
2024-02-19T22:26:08.639Z,8.60
2024-02-19T22:28:36.674Z,8.60
2024-02-19T22:31:04.389Z,8.60
2024-02-19T22:33:31.407Z,8.10
2024-02-19T22:35:57.908Z,8.60
2024-02-19T22:38:25.182Z,8.60
2024-02-19T22:40:51.716Z,8.60
2024-02-19T22:43:18.690Z,8.50
2024-02-19T22:45:45.262Z,8.50
2024-02-19T22:48:12.050Z,8.50
2024-02-19T22:50:39.551Z,8.50
2024-02-19T22:53:06.143Z,8.40
2024-02-19T22:55:33.450Z,8.50
2024-02-19T22:58:00.070Z,8.50
2024-02-19T23:00:30.112Z,8.50
2024-02-19T23:02:56.852Z,8.50
2024-02-19T23:05:25.188Z,8.50
2024-02-19T23:07:54.795Z,8.50
2024-02-19T23:10:24.731Z,8.50
2024-02-19T23:12:52.073Z,8.50
2024-02-19T23:15:19.058Z,8.50
2024-02-19T23:17:46.001Z,8.50
2024-02-19T23:20:13.159Z,8.50
2024-02-19T23:22:41.445Z,8.50
2024-02-19T23:25:08.744Z,8.50
2024-02-19T23:27:36.030Z,8.50
2024-02-19T23:30:03.382Z,8.50
2024-02-19T23:32:30.532Z,8.50
2024-02-19T23:34:57.094Z,8.40
2024-02-19T23:37:23.738Z,8.40
2024-02-19T23:39:50.828Z,8.40
2024-02-19T23:42:18.672Z,8.40
2024-02-19T23:44:45.190Z,8.40
2024-02-19T23:47:12.141Z,8.40
2024-02-19T23:49:38.776Z,8.40
2024-02-19T23:52:05.918Z,8.40
2024-02-19T23:54:32.900Z,8.70
2024-02-19T23:56:59.405Z,8.30
2024-02-19T23:59:26.431Z,8.30
